createdAt,value
2022-08-05T00:04:19.560Z,100.00
2022-08-05T00:09:21.070Z,100.00
2022-08-05T00:14:27.632Z,100.00
2022-08-05T00:19:33.459Z,100.00
2022-08-05T00:24:42.800Z,100.00
2022-08-05T00:29:44.694Z,100.00
2022-08-05T00:35:05.245Z,100.00
2022-08-05T00:40:09.463Z,100.00
2022-08-05T00:45:11.771Z,100.00
2022-08-05T00:50:14.968Z,100.00
2022-08-05T00:55:16.656Z,100.00
2022-08-05T01:00:21.900Z,100.00
2022-08-05T01:05:24.795Z,100.00
2022-08-05T01:10:35.329Z,100.00
2022-08-05T01:15:47.865Z,100.00
2022-08-05T01:21:07.689Z,100.00
2022-08-05T01:26:26.492Z,100.00
2022-08-05T01:31:44.655Z,100.00
2022-08-05T01:37:02.224Z,100.00
2022-08-05T01:42:06.529Z,100.00
2022-08-05T01:47:15.093Z,100.00
2022-08-05T01:52:19.162Z,100.00
2022-08-05T01:58:10.034Z,100.00
2022-08-05T02:03:04.004Z,100.00
2022-08-05T02:08:05.925Z,100.00
2022-08-05T02:13:53.281Z,100.00
2022-08-05T02:19:07.391Z,100.00
2022-08-05T02:24:14.639Z,100.00
2022-08-05T02:29:25.990Z,100.00
2022-08-05T02:34:46.118Z,100.00
2022-08-05T02:39:57.320Z,100.00
2022-08-05T02:45:00.226Z,100.00
2022-08-05T02:50:05.128Z,100.00
2022-08-05T02:55:10.949Z,100.00
2022-08-05T03:00:13.816Z,100.00
2022-08-05T03:05:15.980Z,100.00
2022-08-05T03:10:21.949Z,100.00
2022-08-05T03:15:26.435Z,100.00
2022-08-05T03:20:29.701Z,100.00
2022-08-05T03:26:03.826Z,100.00
2022-08-05T03:30:55.868Z,100.00
2022-08-05T03:35:58.613Z,100.00
2022-08-05T03:41:00.266Z,100.00
2022-08-05T03:46:10.308Z,100.00
2022-08-05T03:52:37.589Z,100.00
2022-08-05T03:56:43.431Z,100.00
2022-08-05T04:01:50.784Z,100.00
2022-08-05T04:06:54.104Z,100.00
2022-08-05T04:11:57.744Z,100.00
2022-08-05T04:17:00.257Z,100.00
2022-08-05T04:22:08.433Z,100.00
2022-08-05T04:27:13.448Z,100.00
2022-08-05T04:32:15.660Z,100.00
2022-08-05T04:38:00.608Z,100.00
2022-08-05T04:42:54.061Z,100.00
2022-08-05T04:48:03.520Z,100.00
2022-08-05T04:53:05.583Z,100.00
2022-08-05T04:58:15.835Z,100.00
2022-08-05T05:03:23.095Z,100.00
2022-08-05T05:08:29.923Z,100.00
2022-08-05T05:13:32.201Z,100.00
2022-08-05T05:19:09.021Z,100.00
2022-08-05T05:24:09.046Z,100.00
2022-08-05T05:29:14.493Z,100.00
2022-08-05T05:34:19.031Z,100.00
2022-08-05T05:39:45.744Z,100.00
2022-08-05T05:44:47.193Z,100.00
2022-08-05T05:49:52.568Z,100.00
2022-08-05T05:55:07.381Z,100.00
2022-08-05T06:00:19.371Z,100.00
2022-08-05T06:05:20.966Z,100.00
2022-08-05T06:10:22.519Z,100.00
2022-08-05T06:15:25.439Z,100.00
2022-08-05T06:20:47.894Z,100.00
2022-08-05T06:26:12.943Z,100.00
2022-08-05T06:31:17.820Z,100.00
2022-08-05T06:36:25.950Z,100.00
2022-08-05T06:41:27.586Z,100.00
2022-08-05T06:46:29.853Z,100.00
2022-08-05T06:51:31.944Z,100.00
2022-08-05T06:56:34.237Z,100.00
2022-08-05T07:01:36.674Z,100.00
2022-08-05T07:06:38.371Z,100.00
2022-08-05T07:11:40.106Z,100.00
2022-08-05T07:17:59.526Z,100.00
2022-08-05T07:22:03.185Z,100.00
2022-08-05T07:27:08.862Z,100.00
2022-08-05T07:32:10.455Z,100.00
2022-08-05T07:37:11.997Z,100.00
2022-08-05T07:42:16.272Z,100.00
2022-08-05T07:47:17.829Z,100.00
2022-08-05T07:52:20.403Z,100.00
2022-08-05T07:57:41.750Z,100.00
2022-08-05T08:03:14.807Z,100.00
2022-08-05T08:08:12.444Z,100.00
2022-08-05T08:13:14.015Z,100.00
2022-08-05T08:18:23.642Z,100.00
2022-08-05T08:24:03.403Z,100.00
2022-08-05T08:28:59.023Z,100.00
2022-08-05T08:34:03.875Z,100.00
2022-08-05T08:39:14.872Z,100.00
2022-08-05T08:45:22.625Z,100.00
2022-08-05T08:50:07.798Z,100.00
2022-08-05T08:55:13.459Z,100.00
2022-08-05T09:00:20.957Z,100.00
2022-08-05T09:05:38.913Z,100.00
2022-08-05T09:10:46.731Z,100.00
2022-08-05T09:15:48.590Z,100.00
2022-08-05T09:20:50.030Z,100.00
2022-08-05T09:26:08.575Z,100.00
2022-08-05T09:32:39.676Z,96.54
2022-08-05T09:36:55.301Z,98.86
2022-08-05T09:42:07.740Z,99.67
2022-08-05T09:47:16.342Z,96.99
2022-08-05T09:52:35.190Z,99.89
2022-08-05T09:57:39.445Z,99.54
2022-08-05T10:02:48.886Z,94.14
2022-08-05T10:08:36.551Z,96.39
2022-08-05T10:13:44.156Z,92.76
2022-08-05T10:18:49.835Z,92.27
2022-08-05T10:23:59.824Z,89.32
2022-08-05T10:29:02.891Z,88.01
2022-08-05T10:34:06.934Z,91.23
2022-08-05T10:39:24.425Z,97.13
2022-08-05T10:44:43.998Z,100.00
2022-08-05T10:50:31.629Z,100.00
2022-08-05T10:55:29.320Z,100.00
2022-08-05T11:00:35.123Z,99.57
2022-08-05T11:06:15.127Z,100.00
2022-08-05T11:11:44.356Z,100.00
2022-08-05T11:17:58.034Z,92.24
2022-08-05T11:22:58.035Z,90.49
2022-08-05T11:28:09.344Z,87.46
2022-08-05T11:33:43.830Z,88.89
2022-08-05T11:38:51.851Z,89.99
2022-08-05T11:44:06.730Z,87.45
2022-08-05T11:49:15.773Z,83.18
2022-08-05T11:54:34.488Z,82.22
2022-08-05T11:59:41.230Z,81.71
2022-08-05T12:04:59.322Z,84.47
2022-08-05T12:10:06.633Z,82.14
2022-08-05T12:15:33.255Z,86.77
2022-08-05T12:20:40.658Z,85.10
2022-08-05T12:25:53.657Z,83.72
2022-08-05T12:31:02.389Z,81.77
2022-08-05T12:36:07.049Z,82.71
2022-08-05T12:41:13.157Z,77.67
2022-08-05T12:46:29.525Z,78.68
2022-08-05T12:52:14.330Z,78.50
2022-08-05T12:56:54.650Z,80.02
2022-08-05T13:02:27.291Z,81.83
2022-08-05T13:07:57.337Z,81.62
2022-08-05T13:12:57.985Z,83.02
2022-08-05T13:18:00.041Z,84.28
2022-08-05T13:23:02.478Z,86.91
2022-08-05T13:28:10.451Z,86.33
2022-08-05T13:33:14.314Z,84.32
2022-08-05T13:38:36.245Z,84.58
2022-08-05T13:43:54.754Z,84.75
2022-08-05T13:49:00.955Z,85.29
2022-08-05T13:54:02.823Z,85.70
2022-08-05T13:59:06.052Z,86.96
2022-08-05T14:04:20.674Z,82.66
2022-08-05T14:09:22.078Z,81.46
2022-08-05T14:14:29.613Z,80.79
2022-08-05T14:19:54.579Z,79.51
2022-08-05T14:24:56.530Z,78.67
2022-08-05T14:29:58.603Z,78.52
2022-08-05T14:35:00.563Z,78.73
2022-08-05T14:40:02.523Z,78.36
2022-08-05T14:45:05.017Z,75.40
2022-08-05T14:50:17.722Z,78.53
2022-08-05T14:55:20.101Z,75.33
2022-08-05T15:00:21.624Z,73.57
2022-08-05T15:06:08.410Z,72.81
2022-08-05T15:10:51.666Z,71.88
2022-08-05T15:15:56.458Z,71.87
2022-08-05T15:20:58.039Z,70.78
2022-08-05T15:26:09.277Z,68.79
2022-08-05T15:31:11.266Z,67.99
2022-08-05T15:36:17.400Z,70.48
2022-08-05T15:41:56.387Z,67.86
2022-08-05T15:46:47.109Z,64.23
2022-08-05T15:52:10.383Z,64.22
2022-08-05T15:57:13.899Z,65.70
2022-08-05T16:02:27.785Z,66.24
2022-08-05T16:07:30.467Z,63.70
2022-08-05T16:12:31.902Z,60.80
2022-08-05T16:17:33.469Z,64.23
2022-08-05T16:22:34.941Z,61.26
2022-08-05T16:28:00.413Z,68.41
2022-08-05T16:32:59.604Z,60.26
2022-08-05T16:38:16.174Z,62.97
2022-08-05T16:43:27.868Z,62.28
2022-08-05T16:48:33.286Z,64.04
2022-08-05T16:54:03.004Z,64.02
2022-08-05T16:59:08.304Z,60.48
2022-08-05T17:04:10.003Z,60.27
2022-08-05T17:09:11.618Z,59.06
2022-08-05T17:14:34.150Z,58.92
2022-08-05T17:19:36.829Z,59.91
2022-08-05T17:24:40.597Z,59.67
2022-08-05T17:29:52.751Z,61.45
2022-08-05T17:35:02.317Z,60.58
2022-08-05T17:40:10.799Z,61.45
2022-08-05T17:45:18.187Z,62.36
2022-08-05T17:50:29.966Z,63.31
2022-08-05T17:55:34.355Z,65.61
2022-08-05T18:00:44.990Z,65.01
2022-08-05T18:05:52.897Z,65.96
2022-08-05T18:10:55.028Z,66.00
2022-08-05T18:15:56.567Z,61.16
2022-08-05T18:20:58.588Z,62.30
2022-08-05T18:26:04.699Z,63.23
2022-08-05T18:31:06.816Z,62.69
2022-08-05T18:36:15.433Z,65.83
2022-08-05T18:41:55.435Z,65.79
2022-08-05T18:46:38.667Z,71.21
2022-08-05T18:52:05.455Z,72.59
2022-08-05T18:57:04.256Z,72.44
2022-08-05T19:02:05.932Z,73.70
2022-08-05T19:07:29.801Z,77.21
2022-08-05T19:12:47.019Z,76.48
2022-08-05T19:18:08.166Z,75.03
2022-08-05T19:23:22.378Z,77.61
2022-08-05T19:28:32.922Z,78.95
2022-08-05T19:33:35.398Z,77.80
2022-08-05T19:38:38.044Z,75.40
2022-08-05T19:44:04.801Z,74.75
2022-08-05T19:49:03.026Z,73.61
2022-08-05T19:54:06.772Z,74.69
2022-08-05T19:59:54.745Z,72.28
2022-08-05T20:04:46.455Z,76.04
2022-08-05T20:09:54.476Z,76.01
2022-08-05T20:14:56.721Z,76.62
2022-08-05T20:19:58.153Z,77.12
2022-08-05T20:24:59.626Z,77.92
2022-08-05T20:30:01.043Z,77.77
2022-08-05T20:35:03.561Z,78.48
2022-08-05T20:40:05.722Z,78.80
2022-08-05T20:45:08.754Z,79.37
2022-08-05T20:50:10.457Z,77.50
2022-08-05T20:55:56.329Z,81.03
2022-08-05T21:00:44.299Z,80.42
2022-08-05T21:05:55.595Z,80.02
2022-08-05T21:11:00.515Z,80.89
2022-08-05T21:16:01.969Z,83.29
2022-08-05T21:21:05.233Z,83.50
2022-08-05T21:26:12.169Z,83.82
2022-08-05T21:31:13.952Z,84.39
2022-08-05T21:36:27.616Z,84.37
2022-08-05T21:41:33.804Z,84.50
2022-08-05T21:46:35.820Z,84.98
2022-08-05T21:52:22.433Z,86.08
2022-08-05T21:57:29.831Z,85.97
2022-08-05T22:02:21.195Z,87.41
2022-08-05T22:07:39.300Z,86.39
2022-08-05T22:12:44.701Z,87.23
2022-08-05T22:17:48.517Z,85.61
2022-08-05T22:22:57.974Z,88.74
2022-08-05T22:28:10.225Z,88.13
2022-08-05T22:33:15.465Z,88.33
2022-08-05T22:38:19.029Z,88.84
2022-08-05T22:43:37.451Z,89.89
2022-08-05T22:48:39.497Z,89.43
2022-08-05T22:53:42.391Z,88.23
2022-08-05T22:58:43.980Z,88.29
2022-08-05T23:03:58.872Z,88.37
2022-08-05T23:09:28.059Z,88.02
2022-08-05T23:14:32.288Z,88.60
2022-08-05T23:19:38.596Z,89.86
2022-08-05T23:24:51.243Z,90.16
2022-08-05T23:29:52.791Z,90.50
2022-08-05T23:34:54.263Z,90.50
2022-08-05T23:39:55.724Z,92.08
2022-08-05T23:44:57.358Z,92.11
2022-08-05T23:49:59.024Z,91.28
2022-08-05T23:55:05.468Z,89.81
